sensor_id;sensor_type;location;lat;lon;timestamp;P1;durP1;ratioP1;P2;durP2;ratioP2
9166;SDS011;4618;48.818;9.088;2022-11-20T00:00:03;9.60;;;8.60;;
9166;SDS011;4618;48.818;9.088;2022-11-20T00:02:29;12.93;;;9.00;;
9166;SDS011;4618;48.818;9.088;2022-11-20T00:04:54;16.90;;;8.53;;
9166;SDS011;4618;48.818;9.088;2022-11-20T00:07:20;27.80;;;9.30;;
9166;SDS011;4618;48.818;9.088;2022-11-20T00:09:45;38.30;;;10.30;;
9166;SDS011;4618;48.818;9.088;2022-11-20T00:12:11;18.70;;;9.00;;
9166;SDS011;4618;48.818;9.088;2022-11-20T00:14:36;11.90;;;9.60;;
9166;SDS011;4618;48.818;9.088;2022-11-20T00:17:02;11.73;;;9.20;;
9166;SDS011;4618;48.818;9.088;2022-11-20T00:19:28;17.53;;;9.43;;
9166;SDS011;4618;48.818;9.088;2022-11-20T00:21:53;10.80;;;9.40;;
9166;SDS011;4618;48.818;9.088;2022-11-20T00:24:20;11.13;;;9.50;;
9166;SDS011;4618;48.818;9.088;2022-11-20T00:26:46;11.10;;;9.47;;
9166;SDS011;4618;48.818;9.088;2022-11-20T00:29:11;12.37;;;10.60;;
9166;SDS011;4618;48.818;9.088;2022-11-20T00:31:37;11.33;;;9.03;;
9166;SDS011;4618;48.818;9.088;2022-11-20T00:34:02;12.23;;;10.33;;
9166;SDS011;4618;48.818;9.088;2022-11-20T00:36:28;9.93;;;8.90;;
9166;SDS011;4618;48.818;9.088;2022-11-20T00:38:57;10.03;;;8.97;;
9166;SDS011;4618;48.818;9.088;2022-11-20T00:41:23;10.33;;;8.83;;
9166;SDS011;4618;48.818;9.088;2022-11-20T00:43:54;9.57;;;8.67;;
9166;SDS011;4618;48.818;9.088;2022-11-20T00:46:21;8.63;;;7.83;;
9166;SDS011;4618;48.818;9.088;2022-11-20T00:48:48;9.23;;;7.70;;
9166;SDS011;4618;48.818;9.088;2022-11-20T00:51:14;8.03;;;7.23;;
9166;SDS011;4618;48.818;9.088;2022-11-20T00:53:41;9.03;;;8.13;;
9166;SDS011;4618;48.818;9.088;2022-11-20T00:56:08;10.03;;;8.87;;
9166;SDS011;4618;48.818;9.088;2022-11-20T00:58:36;10.47;;;8.73;;
9166;SDS011;4618;48.818;9.088;2022-11-20T01:01:11;9.77;;;8.77;;
9166;SDS011;4618;48.818;9.088;2022-11-20T01:03:38;9.13;;;7.87;;
9166;SDS011;4618;48.818;9.088;2022-11-20T01:06:07;10.07;;;8.50;;
9166;SDS011;4618;48.818;9.088;2022-11-20T01:08:37;8.70;;;7.83;;
9166;SDS011;4618;48.818;9.088;2022-11-20T01:11:08;7.80;;;7.00;;
9166;SDS011;4618;48.818;9.088;2022-11-20T01:13:35;7.37;;;6.53;;
9166;SDS011;4618;48.818;9.088;2022-11-20T01:16:05;6.67;;;5.93;;
9166;SDS011;4618;48.818;9.088;2022-11-20T01:18:36;6.03;;;5.40;;
9166;SDS011;4618;48.818;9.088;2022-11-20T01:21:07;6.03;;;4.90;;
9166;SDS011;4618;48.818;9.088;2022-11-20T01:23:53;5.47;;;4.97;;
9166;SDS011;4618;48.818;9.088;2022-11-20T01:26:20;5.00;;;4.27;;
9166;SDS011;4618;48.818;9.088;2022-11-20T01:28:47;5.47;;;4.23;;
9166;SDS011;4618;48.818;9.088;2022-11-20T01:31:32;4.70;;;3.80;;
9166;SDS011;4618;48.818;9.088;2022-11-20T01:34:03;4.23;;;3.67;;
9166;SDS011;4618;48.818;9.088;2022-11-20T01:36:31;4.40;;;3.30;;
9166;SDS011;4618;48.818;9.088;2022-11-20T01:38:59;4.33;;;2.50;;
9166;SDS011;4618;48.818;9.088;2022-11-20T01:41:26;3.00;;;2.80;;
9166;SDS011;4618;48.818;9.088;2022-11-20T01:44:13;3.73;;;2.57;;
9166;SDS011;4618;48.818;9.088;2022-11-20T01:46:42;4.37;;;2.73;;
9166;SDS011;4618;48.818;9.088;2022-11-20T01:49:18;3.07;;;2.60;;
9166;SDS011;4618;48.818;9.088;2022-11-20T01:51:50;3.27;;;2.70;;
9166;SDS011;4618;48.818;9.088;2022-11-20T01:54:23;4.03;;;2.87;;
9166;SDS011;4618;48.818;9.088;2022-11-20T01:56:55;3.40;;;3.00;;
9166;SDS011;4618;48.818;9.088;2022-11-20T01:59:24;2.57;;;2.37;;
9166;SDS011;4618;48.818;9.088;2022-11-20T02:01:51;2.40;;;2.20;;
9166;SDS011;4618;48.818;9.088;2022-11-20T02:04:17;3.57;;;2.17;;
9166;SDS011;4618;48.818;9.088;2022-11-20T02:06:44;2.77;;;2.30;;
9166;SDS011;4618;48.818;9.088;2022-11-20T02:09:14;2.57;;;2.20;;
9166;SDS011;4618;48.818;9.088;2022-11-20T02:11:41;2.10;;;2.00;;
9166;SDS011;4618;48.818;9.088;2022-11-20T02:14:06;2.50;;;2.30;;
9166;SDS011;4618;48.818;9.088;2022-11-20T02:16:36;1.97;;;1.87;;
9166;SDS011;4618;48.818;9.088;2022-11-20T02:19:07;2.60;;;2.20;;
9166;SDS011;4618;48.818;9.088;2022-11-20T02:21:43;2.30;;;2.10;;
9166;SDS011;4618;48.818;9.088;2022-11-20T02:24:14;2.30;;;2.10;;
9166;SDS011;4618;48.818;9.088;2022-11-20T02:26:56;2.43;;;2.20;;
9166;SDS011;4618;48.818;9.088;2022-11-20T02:29:38;2.03;;;1.93;;
9166;SDS011;4618;48.818;9.088;2022-11-20T02:34:46;2.33;;;1.97;;
9166;SDS011;4618;48.818;9.088;2022-11-20T02:37:12;2.40;;;2.10;;
9166;SDS011;4618;48.818;9.088;2022-11-20T02:39:38;3.13;;;2.20;;
9166;SDS011;4618;48.818;9.088;2022-11-20T02:42:05;2.90;;;2.70;;
9166;SDS011;4618;48.818;9.088;2022-11-20T02:44:30;2.33;;;2.13;;
9166;SDS011;4618;48.818;9.088;2022-11-20T02:46:56;2.93;;;2.20;;
9166;SDS011;4618;48.818;9.088;2022-11-20T02:49:23;2.00;;;1.90;;
9166;SDS011;4618;48.818;9.088;2022-11-20T02:51:49;2.67;;;2.03;;
9166;SDS011;4618;48.818;9.088;2022-11-20T02:54:15;3.00;;;1.90;;
9166;SDS011;4618;48.818;9.088;2022-11-20T02:56:40;2.27;;;2.07;;
9166;SDS011;4618;48.818;9.088;2022-11-20T02:59:06;2.50;;;2.30;;
9166;SDS011;4618;48.818;9.088;2022-11-20T03:01:32;2.60;;;2.40;;
9166;SDS011;4618;48.818;9.088;2022-11-20T03:03:59;3.73;;;2.73;;
9166;SDS011;4618;48.818;9.088;2022-11-20T03:06:25;2.23;;;2.10;;
9166;SDS011;4618;48.818;9.088;2022-11-20T03:08:51;3.33;;;2.33;;
9166;SDS011;4618;48.818;9.088;2022-11-20T03:11:16;3.03;;;2.70;;
9166;SDS011;4618;48.818;9.088;2022-11-20T03:13:42;2.53;;;2.33;;
9166;SDS011;4618;48.818;9.088;2022-11-20T03:16:15;2.53;;;2.33;;
9166;SDS011;4618;48.818;9.088;2022-11-20T03:18:42;2.67;;;2.47;;
9166;SDS011;4618;48.818;9.088;2022-11-20T03:21:09;3.70;;;2.40;;
9166;SDS011;4618;48.818;9.088;2022-11-20T03:23:37;3.07;;;2.77;;
9166;SDS011;4618;48.818;9.088;2022-11-20T03:28:39;3.37;;;2.80;;
9166;SDS011;4618;48.818;9.088;2022-11-20T03:31:14;3.00;;;2.80;;
9166;SDS011;4618;48.818;9.088;2022-11-20T03:33:42;3.17;;;2.87;;
9166;SDS011;4618;48.818;9.088;2022-11-20T03:36:09;3.23;;;2.93;;
9166;SDS011;4618;48.818;9.088;2022-11-20T03:38:39;4.30;;;3.00;;
9166;SDS011;4618;48.818;9.088;2022-11-20T03:41:05;3.83;;;3.10;;
9166;SDS011;4618;48.818;9.088;2022-11-20T03:43:33;6.73;;;3.10;;
9166;SDS011;4618;48.818;9.088;2022-11-20T03:45:59;3.63;;;3.20;;
9166;SDS011;4618;48.818;9.088;2022-11-20T03:48:25;4.47;;;3.10;;
9166;SDS011;4618;48.818;9.088;2022-11-20T03:50:51;3.50;;;3.20;;
9166;SDS011;4618;48.818;9.088;2022-11-20T03:53:18;3.30;;;3.03;;
9166;SDS011;4618;48.818;9.088;2022-11-20T03:55:44;4.77;;;3.17;;
9166;SDS011;4618;48.818;9.088;2022-11-20T03:58:14;3.47;;;3.17;;
9166;SDS011;4618;48.818;9.088;2022-11-20T04:00:40;3.23;;;2.93;;
9166;SDS011;4618;48.818;9.088;2022-11-20T04:03:06;4.90;;;3.13;;
9166;SDS011;4618;48.818;9.088;2022-11-20T04:05:32;3.30;;;3.00;;
9166;SDS011;4618;48.818;9.088;2022-11-20T04:07:58;3.97;;;3.40;;
9166;SDS011;4618;48.818;9.088;2022-11-20T04:10:24;4.20;;;3.10;;
9166;SDS011;4618;48.818;9.088;2022-11-20T04:12:49;4.70;;;2.90;;
9166;SDS011;4618;48.818;9.088;2022-11-20T04:17:40;3.10;;;2.80;;
9166;SDS011;4618;48.818;9.088;2022-11-20T04:20:06;2.53;;;2.33;;
9166;SDS011;4618;48.818;9.088;2022-11-20T04:22:32;3.27;;;2.80;;
9166;SDS011;4618;48.818;9.088;2022-11-20T04:24:57;3.43;;;2.87;;
9166;SDS011;4618;48.818;9.088;2022-11-20T04:27:23;2.97;;;2.63;;
9166;SDS011;4618;48.818;9.088;2022-11-20T04:29:49;5.13;;;3.00;;
9166;SDS011;4618;48.818;9.088;2022-11-20T04:32:14;3.10;;;2.80;;
9166;SDS011;4618;48.818;9.088;2022-11-20T04:34:40;3.30;;;2.50;;
9166;SDS011;4618;48.818;9.088;2022-11-20T04:37:05;2.90;;;2.60;;
9166;SDS011;4618;48.818;9.088;2022-11-20T04:39:31;3.00;;;2.60;;
9166;SDS011;4618;48.818;9.088;2022-11-20T04:41:56;3.37;;;2.60;;
9166;SDS011;4618;48.818;9.088;2022-11-20T04:44:40;3.80;;;2.60;;
9166;SDS011;4618;48.818;9.088;2022-11-20T04:47:06;2.80;;;2.53;;
9166;SDS011;4618;48.818;9.088;2022-11-20T04:49:31;3.27;;;2.50;;
9166;SDS011;4618;48.818;9.088;2022-11-20T04:51:57;4.10;;;2.43;;
9166;SDS011;4618;48.818;9.088;2022-11-20T04:54:23;3.20;;;2.37;;
9166;SDS011;4618;48.818;9.088;2022-11-20T04:56:48;2.70;;;2.50;;
9166;SDS011;4618;48.818;9.088;2022-11-20T04:59:15;2.87;;;2.50;;
9166;SDS011;4618;48.818;9.088;2022-11-20T05:01:40;3.73;;;2.20;;
9166;SDS011;4618;48.818;9.088;2022-11-20T05:04:06;2.60;;;2.40;;
9166;SDS011;4618;48.818;9.088;2022-11-20T05:06:32;3.33;;;2.50;;
9166;SDS011;4618;48.818;9.088;2022-11-20T05:08:58;2.43;;;2.20;;
9166;SDS011;4618;48.818;9.088;2022-11-20T05:11:23;2.23;;;2.10;;
9166;SDS011;4618;48.818;9.088;2022-11-20T05:13:49;2.73;;;2.50;;
9166;SDS011;4618;48.818;9.088;2022-11-20T05:16:20;2.70;;;2.50;;
9166;SDS011;4618;48.818;9.088;2022-11-20T05:18:47;3.87;;;2.50;;
9166;SDS011;4618;48.818;9.088;2022-11-20T05:21:13;4.67;;;2.60;;
9166;SDS011;4618;48.818;9.088;2022-11-20T05:23:40;2.50;;;2.37;;
9166;SDS011;4618;48.818;9.088;2022-11-20T05:26:06;2.60;;;2.20;;
9166;SDS011;4618;48.818;9.088;2022-11-20T05:28:33;2.83;;;2.50;;
9166;SDS011;4618;48.818;9.088;2022-11-20T05:33:39;3.10;;;2.40;;
9166;SDS011;4618;48.818;9.088;2022-11-20T05:36:06;3.00;;;2.70;;
9166;SDS011;4618;48.818;9.088;2022-11-20T05:38:33;2.67;;;2.47;;
9166;SDS011;4618;48.818;9.088;2022-11-20T05:41:05;2.83;;;2.63;;
9166;SDS011;4618;48.818;9.088;2022-11-20T05:43:36;2.80;;;2.60;;
9166;SDS011;4618;48.818;9.088;2022-11-20T05:46:03;5.20;;;2.67;;
9166;SDS011;4618;48.818;9.088;2022-11-20T05:48:30;3.60;;;2.63;;
9166;SDS011;4618;48.818;9.088;2022-11-20T05:50:57;3.80;;;2.50;;
9166;SDS011;4618;48.818;9.088;2022-11-20T05:53:23;4.67;;;2.90;;
9166;SDS011;4618;48.818;9.088;2022-11-20T05:58:27;4.27;;;2.83;;
9166;SDS011;4618;48.818;9.088;2022-11-20T06:00:53;3.67;;;2.90;;
9166;SDS011;4618;48.818;9.088;2022-11-20T06:03:19;3.00;;;2.70;;
9166;SDS011;4618;48.818;9.088;2022-11-20T06:05:45;3.13;;;2.83;;
9166;SDS011;4618;48.818;9.088;2022-11-20T06:08:11;2.70;;;2.50;;
9166;SDS011;4618;48.818;9.088;2022-11-20T06:10:36;3.23;;;2.70;;
9166;SDS011;4618;48.818;9.088;2022-11-20T06:13:02;2.73;;;2.53;;
9166;SDS011;4618;48.818;9.088;2022-11-20T06:15:27;2.70;;;2.50;;
9166;SDS011;4618;48.818;9.088;2022-11-20T06:17:53;2.70;;;2.50;;
9166;SDS011;4618;48.818;9.088;2022-11-20T06:20:20;2.80;;;2.60;;
9166;SDS011;4618;48.818;9.088;2022-11-20T06:22:46;3.50;;;2.37;;
9166;SDS011;4618;48.818;9.088;2022-11-20T06:25:11;2.37;;;2.17;;
9166;SDS011;4618;48.818;9.088;2022-11-20T06:27:37;2.40;;;2.20;;
9166;SDS011;4618;48.818;9.088;2022-11-20T06:30:03;2.10;;;1.90;;
9166;SDS011;4618;48.818;9.088;2022-11-20T06:32:29;2.90;;;2.23;;
9166;SDS011;4618;48.818;9.088;2022-11-20T06:34:55;2.20;;;2.10;;
9166;SDS011;4618;48.818;9.088;2022-11-20T06:37:20;3.07;;;2.03;;
9166;SDS011;4618;48.818;9.088;2022-11-20T06:39:46;2.03;;;1.93;;
9166;SDS011;4618;48.818;9.088;2022-11-20T06:42:11;2.37;;;2.17;;
9166;SDS011;4618;48.818;9.088;2022-11-20T06:44:37;1.97;;;1.67;;
9166;SDS011;4618;48.818;9.088;2022-11-20T06:47:02;3.00;;;2.00;;
9166;SDS011;4618;48.818;9.088;2022-11-20T06:49:28;4.37;;;2.20;;
9166;SDS011;4618;48.818;9.088;2022-11-20T06:51:54;1.73;;;1.63;;
9166;SDS011;4618;48.818;9.088;2022-11-20T06:54:19;3.43;;;1.80;;
9166;SDS011;4618;48.818;9.088;2022-11-20T06:56:48;3.00;;;1.80;;
9166;SDS011;4618;48.818;9.088;2022-11-20T06:59:13;2.57;;;1.60;;
9166;SDS011;4618;48.818;9.088;2022-11-20T07:01:39;2.10;;;1.93;;
9166;SDS011;4618;48.818;9.088;2022-11-20T07:04:05;2.43;;;1.70;;
9166;SDS011;4618;48.818;9.088;2022-11-20T07:06:30;1.47;;;1.37;;
9166;SDS011;4618;48.818;9.088;2022-11-20T07:08:56;1.77;;;1.53;;
9166;SDS011;4618;48.818;9.088;2022-11-20T07:11:22;1.53;;;1.43;;
9166;SDS011;4618;48.818;9.088;2022-11-20T07:13:48;2.10;;;1.73;;
9166;SDS011;4618;48.818;9.088;2022-11-20T07:16:14;1.77;;;1.67;;
9166;SDS011;4618;48.818;9.088;2022-11-20T07:18:40;1.53;;;1.43;;
9166;SDS011;4618;48.818;9.088;2022-11-20T07:21:07;2.20;;;1.63;;
9166;SDS011;4618;48.818;9.088;2022-11-20T07:23:35;3.20;;;1.50;;
9166;SDS011;4618;48.818;9.088;2022-11-20T07:26:04;2.03;;;1.53;;
9166;SDS011;4618;48.818;9.088;2022-11-20T07:28:35;1.87;;;1.60;;
9166;SDS011;4618;48.818;9.088;2022-11-20T07:31:01;1.73;;;1.63;;
9166;SDS011;4618;48.818;9.088;2022-11-20T07:33:27;1.67;;;1.57;;
9166;SDS011;4618;48.818;9.088;2022-11-20T07:35:53;2.33;;;1.40;;
9166;SDS011;4618;48.818;9.088;2022-11-20T07:38:18;2.13;;;1.60;;
9166;SDS011;4618;48.818;9.088;2022-11-20T07:40:44;1.67;;;1.37;;
9166;SDS011;4618;48.818;9.088;2022-11-20T07:43:09;1.67;;;1.57;;
9166;SDS011;4618;48.818;9.088;2022-11-20T07:45:35;1.80;;;1.70;;
9166;SDS011;4618;48.818;9.088;2022-11-20T07:48:01;1.83;;;1.73;;
9166;SDS011;4618;48.818;9.088;2022-11-20T07:50:26;1.60;;;1.50;;
9166;SDS011;4618;48.818;9.088;2022-11-20T07:52:52;2.00;;;1.90;;
9166;SDS011;4618;48.818;9.088;2022-11-20T07:55:24;1.80;;;1.70;;
9166;SDS011;4618;48.818;9.088;2022-11-20T07:57:54;1.93;;;1.57;;
9166;SDS011;4618;48.818;9.088;2022-11-20T08:00:20;2.50;;;1.60;;
9166;SDS011;4618;48.818;9.088;2022-11-20T08:02:46;1.90;;;1.80;;
9166;SDS011;4618;48.818;9.088;2022-11-20T08:05:12;1.90;;;1.53;;
9166;SDS011;4618;48.818;9.088;2022-11-20T08:07:38;2.30;;;1.47;;
9166;SDS011;4618;48.818;9.088;2022-11-20T08:10:05;1.60;;;1.50;;
9166;SDS011;4618;48.818;9.088;2022-11-20T08:12:31;1.40;;;1.30;;
9166;SDS011;4618;48.818;9.088;2022-11-20T08:15:16;1.50;;;1.40;;
9166;SDS011;4618;48.818;9.088;2022-11-20T08:17:41;1.10;;;1.10;;
9166;SDS011;4618;48.818;9.088;2022-11-20T08:20:07;1.17;;;1.10;;
9166;SDS011;4618;48.818;9.088;2022-11-20T08:22:33;1.20;;;1.10;;
9166;SDS011;4618;48.818;9.088;2022-11-20T08:24:58;1.47;;;1.00;;
9166;SDS011;4618;48.818;9.088;2022-11-20T08:27:24;0.90;;;0.90;;
9166;SDS011;4618;48.818;9.088;2022-11-20T08:29:50;1.37;;;1.00;;
9166;SDS011;4618;48.818;9.088;2022-11-20T08:32:15;1.87;;;0.93;;
9166;SDS011;4618;48.818;9.088;2022-11-20T08:34:41;0.93;;;0.90;;
9166;SDS011;4618;48.818;9.088;2022-11-20T08:37:06;0.80;;;0.80;;
9166;SDS011;4618;48.818;9.088;2022-11-20T08:39:32;0.73;;;0.73;;
9166;SDS011;4618;48.818;9.088;2022-11-20T08:41:57;1.60;;;0.73;;
9166;SDS011;4618;48.818;9.088;2022-11-20T08:44:23;0.80;;;0.70;;
9166;SDS011;4618;48.818;9.088;2022-11-20T08:46:48;0.60;;;0.60;;
9166;SDS011;4618;48.818;9.088;2022-11-20T08:49:14;1.17;;;0.70;;
9166;SDS011;4618;48.818;9.088;2022-11-20T08:51:40;1.37;;;0.50;;
9166;SDS011;4618;48.818;9.088;2022-11-20T08:54:07;0.57;;;0.57;;
9166;SDS011;4618;48.818;9.088;2022-11-20T08:56:33;0.53;;;0.53;;
9166;SDS011;4618;48.818;9.088;2022-11-20T08:58:59;1.57;;;0.50;;
9166;SDS011;4618;48.818;9.088;2022-11-20T09:01:25;0.67;;;0.50;;
9166;SDS011;4618;48.818;9.088;2022-11-20T09:03:51;0.70;;;0.60;;
9166;SDS011;4618;48.818;9.088;2022-11-20T09:06:17;0.70;;;0.60;;
9166;SDS011;4618;48.818;9.088;2022-11-20T09:08:43;0.60;;;0.60;;
9166;SDS011;4618;48.818;9.088;2022-11-20T09:11:09;0.50;;;0.50;;
9166;SDS011;4618;48.818;9.088;2022-11-20T09:13:35;0.60;;;0.60;;
9166;SDS011;4618;48.818;9.088;2022-11-20T09:16:09;0.90;;;0.60;;
9166;SDS011;4618;48.818;9.088;2022-11-20T09:18:35;0.63;;;0.50;;
9166;SDS011;4618;48.818;9.088;2022-11-20T09:21:03;0.50;;;0.43;;
9166;SDS011;4618;48.818;9.088;2022-11-20T09:23:31;0.40;;;0.40;;
9166;SDS011;4618;48.818;9.088;2022-11-20T09:26:01;0.83;;;0.50;;
9166;SDS011;4618;48.818;9.088;2022-11-20T09:28:28;0.40;;;0.40;;
9166;SDS011;4618;48.818;9.088;2022-11-20T09:30:54;0.50;;;0.50;;
9166;SDS011;4618;48.818;9.088;2022-11-20T09:33:19;0.70;;;0.70;;
9166;SDS011;4618;48.818;9.088;2022-11-20T09:35:45;0.50;;;0.50;;
9166;SDS011;4618;48.818;9.088;2022-11-20T09:38:10;0.80;;;0.63;;
9166;SDS011;4618;48.818;9.088;2022-11-20T09:40:38;1.23;;;0.70;;
9166;SDS011;4618;48.818;9.088;2022-11-20T09:51:40;0.57;;;0.50;;
9166;SDS011;4618;48.818;9.088;2022-11-20T09:54:19;1.03;;;0.50;;
9166;SDS011;4618;48.818;9.088;2022-11-20T09:56:48;1.43;;;0.70;;
9166;SDS011;4618;48.818;9.088;2022-11-20T10:02:08;0.50;;;0.50;;
9166;SDS011;4618;48.818;9.088;2022-11-20T10:04:49;1.63;;;0.50;;
9166;SDS011;4618;48.818;9.088;2022-11-20T10:07:24;0.73;;;0.70;;
9166;SDS011;4618;48.818;9.088;2022-11-20T10:09:56;1.90;;;0.60;;
9166;SDS011;4618;48.818;9.088;2022-11-20T10:12:36;0.70;;;0.70;;
9166;SDS011;4618;48.818;9.088;2022-11-20T10:21:03;0.97;;;0.87;;
9166;SDS011;4618;48.818;9.088;2022-11-20T10:26:55;1.60;;;0.70;;
9166;SDS011;4618;48.818;9.088;2022-11-20T10:32:31;0.90;;;0.90;;
9166;SDS011;4618;48.818;9.088;2022-11-20T10:35:10;1.00;;;0.70;;
9166;SDS011;4618;48.818;9.088;2022-11-20T10:37:58;2.27;;;0.70;;
9166;SDS011;4618;48.818;9.088;2022-11-20T10:40:35;0.90;;;0.90;;
9166;SDS011;4618;48.818;9.088;2022-11-20T10:43:18;1.37;;;0.60;;
9166;SDS011;4618;48.818;9.088;2022-11-20T10:45:54;0.80;;;0.77;;
9166;SDS011;4618;48.818;9.088;2022-11-20T10:48:35;1.43;;;0.93;;
9166;SDS011;4618;48.818;9.088;2022-11-20T10:51:07;1.40;;;1.13;;
9166;SDS011;4618;48.818;9.088;2022-11-20T10:54:08;1.07;;;0.97;;
9166;SDS011;4618;48.818;9.088;2022-11-20T11:01:58;2.00;;;1.10;;
9166;SDS011;4618;48.818;9.088;2022-11-20T11:06:49;2.97;;;1.30;;
9166;SDS011;4618;48.818;9.088;2022-11-20T11:09:19;2.33;;;1.43;;
9166;SDS011;4618;48.818;9.088;2022-11-20T11:11:59;1.00;;;1.00;;
9166;SDS011;4618;48.818;9.088;2022-11-20T11:14:25;2.57;;;1.10;;
9166;SDS011;4618;48.818;9.088;2022-11-20T11:16:55;1.47;;;1.27;;
9166;SDS011;4618;48.818;9.088;2022-11-20T11:19:21;1.30;;;1.20;;
9166;SDS011;4618;48.818;9.088;2022-11-20T11:21:51;1.97;;;1.80;;
9166;SDS011;4618;48.818;9.088;2022-11-20T11:24:23;1.70;;;1.40;;
9166;SDS011;4618;48.818;9.088;2022-11-20T11:27:00;2.40;;;1.33;;
9166;SDS011;4618;48.818;9.088;2022-11-20T11:29:32;2.77;;;1.20;;
9166;SDS011;4618;48.818;9.088;2022-11-20T11:32:08;2.33;;;1.07;;
9166;SDS011;4618;48.818;9.088;2022-11-20T11:34:39;1.00;;;0.97;;
9166;SDS011;4618;48.818;9.088;2022-11-20T11:37:05;1.40;;;1.10;;
9166;SDS011;4618;48.818;9.088;2022-11-20T11:39:40;3.80;;;1.00;;
9166;SDS011;4618;48.818;9.088;2022-11-20T11:42:08;1.40;;;0.90;;
9166;SDS011;4618;48.818;9.088;2022-11-20T11:44:43;2.40;;;1.20;;
9166;SDS011;4618;48.818;9.088;2022-11-20T11:47:32;2.10;;;0.90;;
9166;SDS011;4618;48.818;9.088;2022-11-20T11:50:13;2.03;;;1.30;;
9166;SDS011;4618;48.818;9.088;2022-11-20T11:55:38;2.37;;;1.37;;
9166;SDS011;4618;48.818;9.088;2022-11-20T12:00:41;0.87;;;0.80;;
9166;SDS011;4618;48.818;9.088;2022-11-20T12:03:24;2.67;;;0.80;;
9166;SDS011;4618;48.818;9.088;2022-11-20T12:05:58;2.73;;;0.70;;
9166;SDS011;4618;48.818;9.088;2022-11-20T12:16:20;1.40;;;0.60;;
9166;SDS011;4618;48.818;9.088;2022-11-20T12:18:50;0.90;;;0.50;;
9166;SDS011;4618;48.818;9.088;2022-11-20T12:21:18;2.10;;;0.50;;
9166;SDS011;4618;48.818;9.088;2022-11-20T12:40:14;1.57;;;0.57;;
9166;SDS011;4618;48.818;9.088;2022-11-20T12:42:49;2.20;;;0.60;;
9166;SDS011;4618;48.818;9.088;2022-11-20T12:51:29;1.17;;;0.57;;
9166;SDS011;4618;48.818;9.088;2022-11-20T12:56:58;1.43;;;0.60;;
9166;SDS011;4618;48.818;9.088;2022-11-20T13:05:23;3.40;;;0.80;;
9166;SDS011;4618;48.818;9.088;2022-11-20T13:07:50;1.60;;;0.50;;
9166;SDS011;4618;48.818;9.088;2022-11-20T13:10:19;0.87;;;0.60;;
9166;SDS011;4618;48.818;9.088;2022-11-20T13:12:49;0.90;;;0.67;;
9166;SDS011;4618;48.818;9.088;2022-11-20T13:17:57;1.57;;;0.50;;
9166;SDS011;4618;48.818;9.088;2022-11-20T13:20:25;1.07;;;0.40;;
9166;SDS011;4618;48.818;9.088;2022-11-20T13:22:52;1.00;;;0.50;;
9166;SDS011;4618;48.818;9.088;2022-11-20T13:25:32;1.30;;;0.50;;
9166;SDS011;4618;48.818;9.088;2022-11-20T13:30:36;0.50;;;0.50;;
9166;SDS011;4618;48.818;9.088;2022-11-20T13:33:22;3.07;;;0.60;;
9166;SDS011;4618;48.818;9.088;2022-11-20T13:35:58;1.20;;;0.53;;
9166;SDS011;4618;48.818;9.088;2022-11-20T13:38:26;3.73;;;0.57;;
9166;SDS011;4618;48.818;9.088;2022-11-20T13:40:53;1.30;;;0.60;;
9166;SDS011;4618;48.818;9.088;2022-11-20T13:43:42;2.13;;;0.90;;
9166;SDS011;4618;48.818;9.088;2022-11-20T13:46:08;2.30;;;0.77;;
9166;SDS011;4618;48.818;9.088;2022-11-20T13:48:41;0.83;;;0.60;;
9166;SDS011;4618;48.818;9.088;2022-11-20T13:51:11;0.63;;;0.50;;
9166;SDS011;4618;48.818;9.088;2022-11-20T14:02:20;1.03;;;0.50;;
9166;SDS011;4618;48.818;9.088;2022-11-20T14:04:48;1.27;;;0.70;;
9166;SDS011;4618;48.818;9.088;2022-11-20T14:07:17;0.70;;;0.60;;
9166;SDS011;4618;48.818;9.088;2022-11-20T14:09:50;2.30;;;0.80;;
9166;SDS011;4618;48.818;9.088;2022-11-20T14:12:20;1.40;;;0.80;;
9166;SDS011;4618;48.818;9.088;2022-11-20T14:14:53;0.63;;;0.50;;
9166;SDS011;4618;48.818;9.088;2022-11-20T14:20:02;0.50;;;0.50;;
9166;SDS011;4618;48.818;9.088;2022-11-20T14:22:31;1.60;;;0.63;;
9166;SDS011;4618;48.818;9.088;2022-11-20T14:27:32;0.50;;;0.50;;
9166;SDS011;4618;48.818;9.088;2022-11-20T14:30:01;1.07;;;0.70;;
9166;SDS011;4618;48.818;9.088;2022-11-20T14:32:28;1.23;;;0.80;;
9166;SDS011;4618;48.818;9.088;2022-11-20T14:34:55;0.97;;;0.70;;
9166;SDS011;4618;48.818;9.088;2022-11-20T14:37:27;0.97;;;0.67;;
9166;SDS011;4618;48.818;9.088;2022-11-20T14:39:56;2.83;;;0.80;;
9166;SDS011;4618;48.818;9.088;2022-11-20T14:42:24;2.43;;;1.13;;
9166;SDS011;4618;48.818;9.088;2022-11-20T14:44:52;2.67;;;0.90;;
9166;SDS011;4618;48.818;9.088;2022-11-20T14:47:21;2.57;;;1.67;;
9166;SDS011;4618;48.818;9.088;2022-11-20T14:49:51;1.20;;;1.10;;
9166;SDS011;4618;48.818;9.088;2022-11-20T14:52:19;2.00;;;1.10;;
9166;SDS011;4618;48.818;9.088;2022-11-20T14:54:47;2.20;;;1.07;;
9166;SDS011;4618;48.818;9.088;2022-11-20T14:57:32;2.67;;;1.07;;
9166;SDS011;4618;48.818;9.088;2022-11-20T15:02:55;1.70;;;1.00;;
9166;SDS011;4618;48.818;9.088;2022-11-20T15:05:23;1.63;;;1.20;;
9166;SDS011;4618;48.818;9.088;2022-11-20T15:08:03;2.50;;;1.00;;
9166;SDS011;4618;48.818;9.088;2022-11-20T15:10:34;1.47;;;1.10;;
9166;SDS011;4618;48.818;9.088;2022-11-20T15:13:01;1.10;;;1.00;;
9166;SDS011;4618;48.818;9.088;2022-11-20T15:15:35;2.70;;;1.10;;
9166;SDS011;4618;48.818;9.088;2022-11-20T15:18:02;1.30;;;1.20;;
9166;SDS011;4618;48.818;9.088;2022-11-20T15:20:30;1.87;;;1.07;;
9166;SDS011;4618;48.818;9.088;2022-11-20T15:22:57;2.07;;;1.27;;
9166;SDS011;4618;48.818;9.088;2022-11-20T15:25:22;4.03;;;1.47;;
9166;SDS011;4618;48.818;9.088;2022-11-20T15:27:50;3.20;;;1.40;;
9166;SDS011;4618;48.818;9.088;2022-11-20T15:30:19;1.17;;;0.80;;
9166;SDS011;4618;48.818;9.088;2022-11-20T15:32:46;3.13;;;1.17;;
9166;SDS011;4618;48.818;9.088;2022-11-20T15:35:13;2.00;;;1.00;;
9166;SDS011;4618;48.818;9.088;2022-11-20T15:37:39;2.57;;;1.10;;
9166;SDS011;4618;48.818;9.088;2022-11-20T15:40:06;2.47;;;1.37;;
9166;SDS011;4618;48.818;9.088;2022-11-20T15:42:32;2.60;;;1.60;;
9166;SDS011;4618;48.818;9.088;2022-11-20T15:44:58;1.70;;;1.53;;
9166;SDS011;4618;48.818;9.088;2022-11-20T15:47:34;5.07;;;2.67;;
9166;SDS011;4618;48.818;9.088;2022-11-20T15:50:00;5.23;;;2.30;;
9166;SDS011;4618;48.818;9.088;2022-11-20T15:52:26;3.07;;;1.90;;
9166;SDS011;4618;48.818;9.088;2022-11-20T15:54:51;2.13;;;1.70;;
9166;SDS011;4618;48.818;9.088;2022-11-20T15:57:17;2.90;;;1.57;;
9166;SDS011;4618;48.818;9.088;2022-11-20T15:59:43;4.53;;;1.63;;
9166;SDS011;4618;48.818;9.088;2022-11-20T16:02:10;2.40;;;1.80;;
9166;SDS011;4618;48.818;9.088;2022-11-20T16:04:37;4.67;;;2.63;;
9166;SDS011;4618;48.818;9.088;2022-11-20T16:07:03;4.67;;;2.57;;
9166;SDS011;4618;48.818;9.088;2022-11-20T16:09:28;4.23;;;2.93;;
9166;SDS011;4618;48.818;9.088;2022-11-20T16:11:54;3.27;;;2.40;;
9166;SDS011;4618;48.818;9.088;2022-11-20T16:14:19;5.50;;;5.00;;
9166;SDS011;4618;48.818;9.088;2022-11-20T16:17:03;2.70;;;1.60;;
9166;SDS011;4618;48.818;9.088;2022-11-20T16:19:29;2.17;;;1.70;;
9166;SDS011;4618;48.818;9.088;2022-11-20T16:21:56;3.03;;;1.70;;
9166;SDS011;4618;48.818;9.088;2022-11-20T16:24:22;1.80;;;1.70;;
9166;SDS011;4618;48.818;9.088;2022-11-20T16:26:48;4.87;;;4.37;;
9166;SDS011;4618;48.818;9.088;2022-11-20T16:29:14;3.83;;;3.23;;
9166;SDS011;4618;48.818;9.088;2022-11-20T16:31:39;3.10;;;2.33;;
9166;SDS011;4618;48.818;9.088;2022-11-20T16:34:06;1.97;;;1.80;;
9166;SDS011;4618;48.818;9.088;2022-11-20T16:36:32;2.87;;;1.60;;
9166;SDS011;4618;48.818;9.088;2022-11-20T16:38:59;3.57;;;2.43;;
9166;SDS011;4618;48.818;9.088;2022-11-20T16:41:27;2.20;;;2.00;;
9166;SDS011;4618;48.818;9.088;2022-11-20T16:43:55;3.57;;;2.33;;
9166;SDS011;4618;48.818;9.088;2022-11-20T16:46:26;3.07;;;2.20;;
9166;SDS011;4618;48.818;9.088;2022-11-20T16:49:03;2.70;;;2.10;;
9166;SDS011;4618;48.818;9.088;2022-11-20T16:51:31;2.53;;;1.93;;
9166;SDS011;4618;48.818;9.088;2022-11-20T16:54:00;1.63;;;1.40;;
9166;SDS011;4618;48.818;9.088;2022-11-20T16:56:27;2.43;;;2.23;;
9166;SDS011;4618;48.818;9.088;2022-11-20T16:58:55;2.83;;;1.50;;
9166;SDS011;4618;48.818;9.088;2022-11-20T17:01:22;2.30;;;1.30;;
9166;SDS011;4618;48.818;9.088;2022-11-20T17:03:58;3.57;;;1.73;;
9166;SDS011;4618;48.818;9.088;2022-11-20T17:06:30;2.00;;;1.80;;
9166;SDS011;4618;48.818;9.088;2022-11-20T17:09:04;2.37;;;1.90;;
9166;SDS011;4618;48.818;9.088;2022-11-20T17:11:33;2.47;;;1.87;;
9166;SDS011;4618;48.818;9.088;2022-11-20T17:13:59;3.40;;;2.10;;